Latest Weather Observations for Darwin Airport

IDD60901

Issued at 4:01 pm CST Thursday 28 January 2021 (issued every 10 minutes, with the page automatically refreshed every 10 minutes)

About weather observations | Map of Darwin area stations | Latest observations for Darwin area | Other Formats
Station Details ID: 014015 Name: DARWIN AIRPORT Lat: -12.42 Lon: 130.89 Height: 30.4 m
Data from the previous 72 hours. | See also: Recent months at Darwin Airport
Date/Time
CST
Temp
°C
App
Temp
°C
Dew
Point
°C
Rel
Hum
%
Delta-T
°C
Wind Press
QNH
hPa
Press
MSL
hPa
Rain since
9am
mm
Dir  Spd
km/h
Gust
km/h
Spd
kts
Gust
kts
28/03:30pm 25.3 28.1 24.3 94 0.7 NW 17 24 9 13 1003.4 1003.1 44.0
28/03:27pm 25.3 27.6 24.1 93 0.8 NW 19 30 10 16 1003.5 1003.2 44.0
28/03:21pm 25.7 28.8 24.8 95 0.6 WNW 17 30 9 16 1003.6 1003.3 43.8
28/03:00pm 25.4 27.9 24.5 95 0.6 W 19 24 10 13 1004.1 1003.8 43.6
28/02:30pm 25.1 26.8 24.1 94 0.7 WNW 22 30 12 16 1004.6 1004.3 43.2
28/02:11pm 24.7 26.9 24.0 96 0.5 WNW 19 26 10 14 1004.8 1004.5 42.0
28/02:00pm 24.6 26.2 23.9 96 0.5 W 22 32 12 17 1004.8 1004.5 41.2
28/01:39pm 24.0 26.4 23.6 98 0.3 WNW 17 22 9 12 1005.2 1004.9 39.6
28/01:30pm 23.9 26.6 23.5 98 0.3 WNW 15 22 8 12 1005.1 1004.8 39.2
28/01:22pm 23.9 25.8 23.5 98 0.3 WNW 19 22 10 12 1005.6 1005.3 39.0
28/01:16pm 24.0 25.8 23.6 98 0.3 WNW 20 28 11 15 1005.5 1005.2 39.0
28/01:00pm 24.3 22.9 24.2 99 0.1 WNW 39 52 21 28 1005.4 1005.1 37.4
28/12:55pm 24.5 23.8 24.2 98 0.2 WNW 35 54 19 29 1005.4 1005.1 35.4
28/12:50pm 24.3 23.8 23.6 96 0.5 NW 32 54 17 29 1005.5 1005.2 34.8
28/12:43pm 26.0 28.7 25.0 94 0.7 NW 20 44 11 24 1005.4 1005.1 32.6
28/12:39pm 26.0 30.0 25.0 94 0.7 NW 13 19 7 10 1005.2 1004.9 32.6
28/12:30pm 25.7 30.3 24.8 95 0.6 NW 9 13 5 7 1005.1 1004.8 32.6
28/12:00pm 25.2 30.0 24.5 96 0.5 NW 7 9 4 5 1005.0 1004.7 32.2
28/11:30am 24.9 29.2 24.3 96 0.4 WNW 9 11 5 6 1005.9 1005.6 31.6
28/11:24am 24.8 28.7 24.2 96 0.4 WNW 11 15 6 8 1006.0 1005.7 31.2
28/11:11am 24.7 28.1 24.0 96 0.5 WNW 13 17 7 9 1006.1 1005.8 30.8
28/11:00am 24.5 26.5 23.6 95 0.6 WNW 19 32 10 17 1006.1 1005.8 30.6
28/10:54am 24.3 25.7 23.6 96 0.5 W 22 32 12 17 1006.3 1006.0 30.4
28/10:43am 24.1 25.2 23.7 98 0.3 WSW 24 30 13 16 1006.2 1005.9 29.0
28/10:30am 24.4 24.9 24.0 98 0.3 WSW 28 48 15 26 1006.7 1006.4 16.2
28/10:26am 24.8 27.1 24.1 96 0.5 SW 19 48 10 26 1006.6 1006.3 11.0
28/10:25am 24.9 28.0 24.2 96 0.5 SW 15 46 8 25 1006.5 1006.2 10.2
28/10:21am 25.0 29.7 24.3 96 0.5 S 7 17 4 9 1006.1 1005.8 8.0
28/10:15am 24.9 30.1 24.2 96 0.5 SSW 4 9 2 5 1005.9 1005.6 6.2
28/10:00am 25.0 30.9 24.1 95 0.6 CALM 0 2 0 1 1005.7 1005.4 6.2
28/09:43am 24.5 29.9 23.8 96 0.5 W 2 6 1 3 1005.4 1005.1 6.0
28/09:30am 24.2 27.3 23.6 96 0.4 NW 13 24 7 13 1005.7 1005.4 5.0
28/09:20am 24.1 24.3 23.4 96 0.5 NW 28 48 15 26 1005.8 1005.5 2.8
28/09:10am 24.6 23.5 23.4 93 0.8 NW 35 59 19 32 1005.9 1005.6 0.2
28/09:06am 26.8 28.0 24.5 87 1.6 NNW 26 59 14 32 1005.3 1005.0 0.0
28/09:00am 26.5 29.6 24.8 90 1.2 NNW 17 24 9 13 1005.1 1004.8 37.8
28/08:30am 26.4 29.9 25.4 94 0.7 NW 17 22 9 12 1004.4 1004.1 37.8
28/08:18am 26.0 29.0 25.3 96 0.5 NNW 19 24 10 13 1004.6 1004.3 37.8
28/08:03am 26.1 29.2 25.4 96 0.5 NNW 19 26 10 14 1004.7 1004.4 34.2
28/08:00am 26.0 29.4 25.3 96 0.5 NNW 17 22 9 12 1004.5 1004.2 33.6
28/07:30am 25.6 30.2 24.7 95 0.6 N 9 17 5 9 1004.1 1003.8 33.6
28/07:04am 25.5 29.1 24.3 93 0.8 NNE 13 20 7 11 1004.0 1003.7 33.2
28/07:00am 25.5 28.7 24.3 93 0.8 NNE 15 20 8 11 1003.9 1003.6 33.2
28/06:30am 25.5 28.8 23.9 91 1.1 SW 13 20 7 11 1003.2 1002.9 33.2
28/06:00am 25.2 28.5 23.9 92 0.9 SSW 13 19 7 10 1003.5 1003.2 33.2
28/05:30am 25.6 28.0 23.7 89 1.3 SW 17 30 9 16 1003.3 1003.0 32.8
28/05:16am 25.5 30.4 24.6 95 0.6 WSW 7 15 4 8 1003.0 1002.7 32.8
28/05:00am 25.5 28.2 24.1 92 1.0 NW 17 32 9 17 1003.0 1002.7 32.6
28/04:55am 25.5 29.0 24.8 96 0.5 NW 15 32 8 17 1003.2 1002.9 31.4
28/04:30am 25.5 28.9 24.1 92 1.0 W 13 19 7 10 1003.0 1002.7 29.4
28/04:20am 25.4 28.0 23.9 91 1.0 W 17 24 9 13 1003.0 1002.7 29.4
28/04:15am 25.3 27.4 23.8 91 1.0 W 19 26 10 14 1002.9 1002.6 29.4
28/04:00am 25.6 25.7 24.6 94 0.7 NW 32 41 17 22 1002.8 1002.5 29.4
28/03:55am 25.3 25.4 24.6 96 0.5 NW 32 50 17 27 1002.8 1002.5 29.4
28/03:54am 25.2 25.3 24.6 96 0.4 NNW 32 50 17 27 1002.7 1002.4 29.0
28/03:52am 25.2 25.6 24.5 96 0.5 NNW 30 50 16 27 1002.9 1002.6 27.6
28/03:49am 26.0 27.7 24.7 92 0.9 NNW 24 50 13 27 1002.6 1002.3 25.2
28/03:30am 25.6 29.0 24.7 95 0.6 NNW 15 19 8 10 1002.5 1002.2 25.0
28/03:11am 25.5 28.6 24.8 96 0.5 N 17 22 9 12 1002.8 1002.5 25.0
28/03:00am 25.8 28.5 24.8 94 0.7 NNW 19 28 10 15 1002.8 1002.5 25.0
28/02:36am 25.5 27.5 24.5 94 0.7 WNW 22 39 12 21 1002.8 1002.5 19.8
28/02:30am 25.8 28.8 24.7 94 0.8 NNW 17 24 9 13 1002.7 1002.4 19.0
28/02:20am 26.4 30.3 25.5 95 0.6 NNW 15 26 8 14 1003.0 1002.7 18.6
28/02:13am 26.5 30.9 25.7 95 0.6 NNW 13 22 7 12 1002.9 1002.6 18.0
28/02:00am 26.6 30.1 25.5 94 0.8 NNW 17 24 9 13 1003.2 1002.9 17.2
28/01:30am 26.5 29.8 25.1 92 1.0 NNW 17 22 9 12 1003.4 1003.1 17.2
28/01:15am 25.1 28.4 23.9 93 0.8 WNW 13 26 7 14 1003.5 1003.2 17.2
28/01:00am 25.3 28.1 23.7 91 1.1 NW 15 24 8 13 1003.6 1003.3 17.0
28/12:45am 26.1 26.3 24.7 92 1.0 NW 32 56 17 30 1004.2 1003.9 11.4
28/12:44am 26.3 26.4 24.6 90 1.2 NW 32 56 17 30 1004.1 1003.8 11.0
28/12:41am 27.7 28.5 24.5 83 2.2 NW 28 56 15 30 1003.9 1003.6 10.4
28/12:30am 28.0 30.8 24.9 83 2.2 NW 19 26 10 14 1003.8 1003.5 10.4
28/12:00am 27.6 30.8 25.0 86 1.8 NW 17 24 9 13 1004.0 1003.7 10.4
 
Date/Time
CST
Temp
°C
App
Temp
°C
Dew
Point
°C
Rel
Hum
%
Delta-T
°C
Wind Press
QNH
hPa
Press
MSL
hPa
Rain since
9am
mm
Dir  Spd
km/h
Gust
km/h
Spd
kts
Gust
kts
27/11:30pm 27.9 30.8 24.5 82 2.4 WNW 17 24 9 13 1004.2 1003.9 10.4
27/11:00pm 28.0 30.1 24.1 79 2.7 WNW 20 28 11 15 1004.4 1004.1 10.4
27/10:30pm 27.5 30.0 24.5 84 2.1 WNW 19 26 10 14 1004.3 1004.0 10.4
27/10:00pm 27.2 29.5 24.5 85 1.9 WNW 20 28 11 15 1003.9 1003.6 10.4
27/09:30pm 26.2 29.3 24.8 92 1.0 W 17 24 9 13 1003.5 1003.2 10.4
27/09:00pm 25.6 27.8 24.3 92 0.9 WNW 20 33 11 18 1003.6 1003.3 10.2
27/08:55pm 26.0 29.9 24.9 94 0.8 WSW 13 33 7 18 1003.6 1003.3 9.2
27/08:30pm 26.0 28.9 24.4 91 1.1 WSW 17 24 9 13 1003.1 1002.8 8.2
27/08:21pm 25.6 29.3 24.6 94 0.7 W 13 19 7 10 1002.9 1002.6 8.2
27/08:11pm 25.6 29.2 24.3 92 0.9 WNW 13 24 7 13 1002.9 1002.6 8.2
27/08:00pm 26.6 28.4 24.9 90 1.2 W 24 41 13 22 1002.8 1002.5 6.2
27/07:53pm 26.7 29.8 24.1 86 1.8 W 15 24 8 13 1002.5 1002.2 6.0
27/07:30pm 26.0 27.2 23.2 84 1.9 W 22 30 12 16 1002.4 1002.1 6.0
27/07:15pm 26.4 28.0 24.5 89 1.3 WNW 24 35 13 19 1002.2 1001.9 6.0
27/07:00pm 25.5 26.0 23.9 91 1.1 W 28 48 15 26 1001.9 1001.6 6.0
27/06:54pm 25.9 27.4 24.3 91 1.1 WNW 24 48 13 26 1002.1 1001.8 4.2
27/06:51pm 27.2 29.9 24.8 87 1.7 WNW 19 48 10 26 1001.8 1001.5 2.4
27/06:30pm 27.2 28.7 24.3 84 2.0 WNW 24 35 13 19 1001.7 1001.4 2.2
27/06:00pm 27.2 27.3 24.6 86 1.8 WNW 32 43 17 23 1001.4 1001.1 2.2
27/05:30pm 26.8 30.9 25.8 94 0.7 NW 15 28 8 15 1001.1 1000.8 2.0
27/05:12pm 26.2 27.2 24.8 92 1.0 WNW 28 46 15 25 1001.1 1000.8 1.6
27/05:08pm 26.4 26.0 24.7 90 1.2 WNW 35 46 19 25 1001.1 1000.8 1.4
27/05:00pm 27.4 25.6 24.2 83 2.2 NW 41 56 22 30 1000.9 1000.6 1.2
27/04:52pm 29.6 29.2 24.6 74 3.5 WNW 35 56 19 30 1000.8 1000.5 1.2
27/04:35pm 28.1 29.9 26.1 89 1.4 NW 28 37 15 20 1000.6 1000.3 1.2
27/04:30pm 28.0 28.8 25.9 88 1.5 NW 33 48 18 26 1000.6 1000.3 1.2
27/04:26pm 28.7 28.1 24.3 77 3.1 NW 35 48 19 26 1000.5 1000.2 1.2
27/04:21pm 29.3 30.0 24.9 77 3.1 WNW 30 48 16 26 1000.5 1000.2 1.2
27/04:00pm 29.7 31.0 25.3 77 3.1 WNW 28 37 15 20 1000.7 1000.4 1.2
27/03:30pm 30.9 31.3 25.1 71 4.1 WNW 32 39 17 21 1000.8 1000.5 1.2
27/03:00pm 29.6 31.8 26.0 81 2.6 NW 26 39 14 21 1001.0 1000.7 1.2
27/02:30pm 30.1 32.0 25.6 77 3.2 NW 26 35 14 19 1001.0 1000.7 1.2
27/02:00pm 29.2 30.0 25.1 78 2.9 NW 30 39 16 21 1001.4 1001.1 1.2
27/01:30pm 29.0 31.1 25.3 80 2.6 NNW 24 37 13 20 1002.0 1001.7 1.2
27/01:00pm 28.3 30.2 25.0 82 2.3 NW 24 33 13 18 1002.4 1002.1 1.2
27/12:30pm 28.5 30.5 25.1 82 2.4 NW 24 33 13 18 1002.5 1002.2 1.2
27/12:00pm 27.9 30.1 24.9 84 2.1 NW 22 30 12 16 1002.8 1002.5 1.2
27/11:30am 27.0 29.4 24.3 85 1.9 NW 19 30 10 16 1003.1 1002.8 1.2
27/11:00am 26.3 29.4 24.1 88 1.5 NW 15 22 8 12 1003.0 1002.7 1.2
27/10:30am 26.1 27.9 24.2 89 1.3 NW 22 30 12 16 1003.1 1002.8 1.0
27/10:00am 26.1 27.5 24.8 92 0.9 NW 26 35 14 19 1003.5 1003.2 0.8
27/09:30am 26.4 28.0 25.1 92 0.9 NW 26 35 14 19 1003.5 1003.2 0.4
27/09:00am 26.5 28.3 24.8 90 1.2 NW 24 37 13 20 1003.3 1003.0 61.8
27/08:30am 26.5 27.7 24.5 89 1.4 NW 26 39 14 21 1002.9 1002.6 61.4
27/08:00am 26.1 27.2 24.4 90 1.2 NNW 26 37 14 20 1002.6 1002.3 61.4
27/07:30am 25.4 27.0 23.9 91 1.0 NNW 22 32 12 17 1002.3 1002.0 61.4
27/07:00am 25.4 28.3 24.4 94 0.7 NNW 17 26 9 14 1001.8 1001.5 61.0
27/06:43am 24.7 27.5 24.3 98 0.3 NNW 17 20 9 11 1001.9 1001.6 61.0
27/06:36am 24.7 27.7 24.0 96 0.5 NW 15 20 8 11 1001.8 1001.5 60.6
27/06:30am 24.5 27.6 24.1 98 0.3 NW 15 26 8 14 1002.0 1001.7 59.6
27/06:21am 25.0 26.1 24.3 96 0.5 NW 26 43 14 23 1002.2 1001.9 55.0
27/06:10am 25.1 30.0 24.7 98 0.3 NW 7 22 4 12 1001.9 1001.6 53.4
27/06:00am 25.2 31.2 24.3 95 0.6 CALM 0 0 0 0 1001.7 1001.4 48.8
27/05:59am 25.2 31.2 24.3 95 0.6 CALM 0 0 0 0 1001.7 1001.4 48.8
27/05:36am 24.9 29.6 23.9 94 0.7 WSW 6 17 3 9 1001.6 1001.3 48.4
27/05:30am 24.9 29.9 23.9 94 0.7 WNW 4 9 2 5 1001.4 1001.1 47.6
27/05:18am 25.3 26.9 23.2 88 1.4 WSW 20 33 11 18 1001.6 1001.3 45.8
27/05:00am 27.1 30.4 23.9 82 2.2 NW 13 19 7 10 1001.1 1000.8 44.4
27/04:30am 27.0 29.8 25.0 89 1.4 NW 19 24 10 13 1001.2 1000.9 44.4
27/04:00am 24.4 28.5 24.0 98 0.3 NW 9 22 5 12 1001.2 1000.9 44.4
27/03:30am 24.4 29.0 23.8 96 0.4 NNW 6 9 3 5 1001.4 1001.1 44.4
27/03:07am 24.7 26.9 24.0 96 0.5 NNW 19 26 10 14 1001.4 1001.1 44.2
27/03:00am 24.9 26.9 24.0 95 0.6 NNW 20 30 11 16 1001.6 1001.3 44.2
27/02:42am 24.9 26.7 24.2 96 0.5 NNW 22 41 12 22 1001.7 1001.4 41.4
27/02:30am 24.9 28.1 23.7 93 0.8 N 13 17 7 9 1001.5 1001.2 40.6
27/02:17am 25.0 27.8 23.7 92 0.9 SW 15 39 8 21 1001.6 1001.3 32.2
27/02:00am 24.7 29.6 24.3 98 0.3 W 6 9 3 5 1001.9 1001.6 29.6
27/01:39am 24.5 29.1 24.1 98 0.3 NNW 7 11 4 6 1002.0 1001.7 24.2
27/01:30am 24.9 29.8 24.3 96 0.4 W 6 9 3 5 1002.4 1002.1 17.2
27/01:19am 25.1 28.5 24.7 98 0.3 WSW 15 30 8 16 1002.5 1002.2 8.6
27/01:17am 25.3 28.7 24.6 96 0.5 SW 15 30 8 16 1002.5 1002.2 6.8
27/01:00am 25.2 29.5 24.2 94 0.7 NNE 9 15 5 8 1002.3 1002.0 4.8
27/12:30am 24.9 29.7 24.2 96 0.5 ENE 6 6 3 3 1002.6 1002.3 4.8
27/12:00am 25.1 29.9 24.4 96 0.5 ENE 7 9 4 5 1003.1 1002.8 4.8
 
Date/Time
CST
Temp
°C
App
Temp
°C
Dew
Point
°C
Rel
Hum
%
Delta-T
°C
Wind Press
QNH
hPa
Press
MSL
hPa
Rain since
9am
mm
Dir  Spd
km/h
Gust
km/h
Spd
kts
Gust
kts
26/11:30pm 25.1 30.4 24.4 96 0.5 ENE 4 6 2 3 1003.4 1003.1 4.8
26/11:00pm 25.0 30.3 24.4 96 0.4 ENE 4 6 2 3 1003.6 1003.3 4.6
26/10:30pm 25.1 31.2 24.5 96 0.4 CALM 0 0 0 0 1003.5 1003.2 4.6
26/10:00pm 25.3 31.4 24.4 95 0.6 CALM 0 0 0 0 1003.1 1002.8 4.6
26/09:30pm 25.1 31.1 24.2 95 0.6 CALM 0 0 0 0 1002.7 1002.4 4.6
26/09:00pm 25.4 30.2 24.1 92 0.9 WSW 6 9 3 5 1002.5 1002.2 4.6
26/08:30pm 25.4 30.0 24.1 92 0.9 SW 7 11 4 6 1002.4 1002.1 4.6
26/08:00pm 25.4 29.9 23.9 91 1.0 SW 7 13 4 7 1002.1 1001.8 4.6
26/07:30pm 25.8 28.5 23.5 87 1.6 WSW 15 20 8 11 1002.6 1002.3 4.6
26/07:00pm 25.6 29.7 23.9 90 1.2 SW 9 13 5 7 1002.0 1001.7 4.6
26/06:30pm 25.4 28.8 24.1 92 0.9 SSW 13 19 7 10 1001.9 1001.6 4.6
26/06:12pm 25.0 27.5 24.4 96 0.4 SSW 19 30 10 16 1001.8 1001.5 4.6
26/06:07pm 24.9 26.9 24.0 95 0.6 SSW 20 30 11 16 1001.9 1001.6 4.4
26/06:00pm 25.0 27.2 24.3 96 0.5 SSW 20 26 11 14 1001.8 1001.5 2.4
26/05:55pm 25.1 26.8 24.1 94 0.7 SW 22 30 12 16 1001.8 1001.5 2.4
26/05:39pm 26.6 28.7 23.7 84 2.0 SSW 19 35 10 19 1001.6 1001.3 2.0
26/05:30pm 27.4 32.0 24.2 83 2.2 SSW 7 17 4 9 1001.5 1001.2 2.0
26/05:00pm 26.9 31.2 23.6 82 2.3 SSW 7 11 4 6 1001.4 1001.1 2.0
26/04:30pm 26.2 29.1 23.9 87 1.6 SSW 15 24 8 13 1001.7 1001.4 2.0
26/04:09pm 25.8 28.5 24.8 94 0.7 WSW 19 28 10 15 1001.4 1001.1 2.0
26/04:04pm 27.4 30.4 24.7 85 1.9 WSW 17 26 9 14 1001.3 1001.0 0.8
26/04:00pm 28.8 32.0 23.7 74 3.5 W 13 20 7 11 1001.1 1000.8 0.6
26/03:30pm 29.7 32.6 23.2 68 4.5 WNW 13 19 7 10 1001.3 1001.0 0.4
26/03:00pm 29.2 31.3 22.5 67 4.6 W 15 20 8 11 1001.8 1001.5 0.4
26/02:30pm 29.0 30.9 22.1 66 4.7 W 15 22 8 12 1002.1 1001.8 0.4
26/02:00pm 28.6 30.3 22.4 69 4.2 WSW 17 24 9 13 1002.6 1002.3 0.4
26/01:30pm 28.8 30.0 22.5 68 4.3 SW 20 32 11 17 1002.8 1002.5 0.4
26/01:00pm 28.1 29.3 23.9 78 2.9 SW 24 33 13 18 1003.3 1003.0 0.4
26/12:38pm 27.0 28.7 24.7 87 1.6 WSW 24 43 13 23 1003.4 1003.1 0.4
26/12:30pm 28.7 30.0 23.3 72 3.7 WSW 22 30 12 16 1003.2 1002.9 0.0
26/12:00pm 28.7 31.4 24.1 76 3.2 WSW 17 26 9 14 1003.3 1003.0 0.0
26/11:30am 28.9 30.9 24.0 75 3.4 WSW 20 30 11 16 1003.5 1003.2 0.0
26/11:00am 27.9 30.5 23.9 79 2.8 WSW 17 24 9 13 1003.9 1003.6 0.0
26/10:30am 27.9 29.8 23.5 77 3.0 WSW 19 28 10 15 1003.9 1003.6 0.0
26/10:00am 27.8 30.5 24.1 80 2.6 WSW 17 24 9 13 1003.8 1003.5 0.0
26/09:30am 27.1 29.7 23.9 82 2.2 SW 17 26 9 14 1003.8 1003.5 0.0
26/09:00am 26.3 28.9 24.0 87 1.6 SSW 17 24 9 13 1003.8 1003.5 58.6
26/08:30am 27.4 31.4 24.4 84 2.1 WSW 11 19 6 10 1004.1 1003.8 58.6
26/08:00am 26.6 30.8 24.1 86 1.7 WSW 9 15 5 8 1004.0 1003.7 58.6
26/07:30am 26.1 30.7 23.8 87 1.6 WSW 6 9 3 5 1003.8 1003.5 58.6
26/07:00am 26.4 29.7 23.8 85 1.8 WSW 13 19 7 10 1003.4 1003.1 58.6
26/06:30am 26.4 29.7 23.9 86 1.7 W 13 17 7 9 1003.4 1003.1 58.6
26/06:00am 26.1 30.0 24.2 89 1.3 W 11 15 6 8 1003.3 1003.0 58.6
26/05:30am 25.6 29.7 23.9 90 1.2 W 9 13 5 7 1003.1 1002.8 58.6
26/05:00am 25.4 30.0 24.1 92 0.9 W 7 11 4 6 1003.0 1002.7 58.6
26/04:30am 25.4 29.5 23.9 91 1.0 W 9 17 5 9 1002.9 1002.6 58.6
26/04:00am 25.4 29.4 23.8 91 1.1 W 9 15 5 8 1002.9 1002.6 58.6
26/03:30am 25.3 29.1 24.0 92 0.9 W 11 17 6 9 1003.0 1002.7 58.4
26/03:00am 25.0 29.0 23.8 93 0.8 WSW 9 13 5 7 1002.9 1002.6 58.4
26/02:30am 24.9 28.7 24.0 95 0.6 WSW 11 17 6 9 1002.7 1002.4 58.4
26/02:00am 25.0 28.3 23.8 93 0.8 WSW 13 20 7 11 1003.1 1002.8 58.4
26/01:30am 24.8 28.6 24.1 96 0.5 WSW 11 17 6 9 1003.9 1003.6 58.4
26/01:00am 24.8 27.0 23.9 95 0.6 WSW 19 26 10 14 1004.3 1004.0 58.2
26/12:50am 24.8 27.4 23.9 95 0.6 WSW 17 24 9 13 1004.7 1004.4 58.2
26/12:35am 24.6 27.2 23.9 96 0.5 WSW 17 24 9 13 1005.1 1004.8 57.6
26/12:30am 24.7 27.2 23.8 95 0.6 WSW 17 28 9 15 1005.2 1004.9 57.0
26/12:20am 24.7 26.3 23.8 95 0.6 WSW 22 33 12 18 1005.3 1005.0 56.4
26/12:00am 24.8 25.3 23.9 95 0.6 WSW 28 37 15 20 1005.7 1005.4 54.8
 
Date/Time
CST
Temp
°C
App
Temp
°C
Dew
Point
°C
Rel
Hum
%
Delta-T
°C
Wind Press
QNH
hPa
Press
MSL
hPa
Rain since
9am
mm
Dir  Spd
km/h
Gust
km/h
Spd
kts
Gust
kts
25/11:30pm 24.8 26.2 24.2 96 0.4 W 24 32 13 17 1006.0 1005.7 50.8
25/11:10pm 24.7 25.4 24.3 98 0.3 W 28 39 15 21 1006.0 1005.7 47.0
25/11:00pm 24.5 25.8 24.1 98 0.3 W 24 32 13 17 1005.9 1005.6 45.0
25/10:56pm 24.5 25.7 23.9 96 0.4 W 24 32 13 17 1005.9 1005.6 44.4
25/10:45pm 24.7 26.9 24.0 96 0.5 W 19 32 10 17 1006.0 1005.7 39.6
25/10:30pm 24.6 27.4 23.6 94 0.7 W 15 19 8 10 1006.0 1005.7 38.2
25/10:20pm 24.7 27.4 23.4 92 0.9 W 15 26 8 14 1006.0 1005.7 37.0
25/10:17pm 24.9 27.2 23.4 91 1.0 W 17 26 9 14 1006.0 1005.7 36.8
25/10:00pm 25.0 26.5 24.3 96 0.5 W 24 33 13 18 1005.9 1005.6 34.8
25/09:46pm 24.9 27.6 24.2 96 0.5 W 17 22 9 12 1005.8 1005.5 32.2
25/09:30pm 24.8 26.4 23.9 95 0.6 W 22 32 12 17 1005.7 1005.4 30.8
25/09:26pm 24.8 26.0 23.8 94 0.7 W 24 32 13 17 1005.6 1005.3 30.4
25/09:25pm 24.8 26.0 23.8 94 0.7 W 24 32 13 17 1005.6 1005.3 30.4
25/09:11pm 24.9 27.1 24.2 96 0.5 W 20 28 11 15 1005.4 1005.1 29.8
25/09:00pm 24.7 27.4 24.1 96 0.4 W 17 24 9 13 1005.1 1004.8 28.0
25/08:41pm 24.5 27.9 24.1 98 0.3 WSW 13 22 7 12 1004.8 1004.5 24.8
25/08:30pm 24.9 26.0 24.3 96 0.4 W 26 52 14 28 1004.6 1004.3 17.8
25/08:27pm 25.1 25.9 24.5 96 0.4 W 28 52 15 28 1004.6 1004.3 16.4
25/08:23pm 25.2 26.8 24.5 96 0.5 W 24 52 13 28 1004.5 1004.2 16.2
25/08:13pm 26.1 27.4 24.7 92 1.0 WNW 26 33 14 18 1004.3 1004.0 15.6
25/08:00pm 26.2 28.0 24.8 92 1.0 NW 24 32 13 17 1004.1 1003.8 15.6
25/07:30pm 26.5 28.5 24.5 89 1.4 NW 22 32 12 17 1003.8 1003.5 15.2
25/07:00pm 26.6 28.6 24.0 86 1.8 NW 20 26 11 14 1003.6 1003.3 15.2
25/06:30pm 26.4 29.8 24.7 90 1.2 WNW 15 22 8 12 1003.1 1002.8 15.2
25/06:00pm 26.0 29.2 24.3 90 1.2 W 15 19 8 10 1002.8 1002.5 15.2
25/05:30pm 25.6 29.6 24.4 93 0.8 W 11 17 6 9 1002.9 1002.6 15.2
25/05:00pm 25.4 28.9 24.2 93 0.8 W 13 17 7 9 1003.1 1002.8 15.2
25/04:56pm 25.5 28.6 24.2 92 0.9 W 15 19 8 10 1003.2 1002.9 15.2
25/04:41pm 25.4 28.1 24.8 96 0.4 WNW 19 22 10 12 1003.2 1002.9 15.0
25/04:30pm 25.3 28.5 24.4 95 0.6 W 15 26 8 14 1003.2 1002.9 14.8
25/04:21pm 25.2 27.4 24.2 94 0.7 WNW 20 43 11 23 1003.4 1003.1 14.0
25/04:14pm 25.0 26.1 24.4 96 0.4 NW 26 43 14 23 1003.4 1003.1 9.4
25/04:13pm 24.9 26.5 24.5 98 0.3 NW 24 43 13 23 1003.3 1003.0 9.4

Latest Capital City Observations: Canberra | Sydney | Melbourne | Brisbane | Adelaide | Perth | Hobart | Darwin

Other formats

Comma delimited format used in spreadsheet applications
http://www.bom.gov.au/fwo/IDD60901/IDD60901.94120.axf

JavaScript Object Notation format (JSON) in row-major order
http://www.bom.gov.au/fwo/IDD60901/IDD60901.94120.json

Data quality

Most of these data are generated automatically and are frequently updated. Quality checks on data are not normally performed. It is possible for incorrect values to appear. Refer to information at About Latest Weather Observations and please check the disclaimer before using these data.